Time;durP1;ratioP1;P1;durP2;ratioP2;P2;SDS_P1;SDS_P2;PMS_P1;PMS_P2;Temp;Humidity;BMP_temperature;BMP_pressure;BME280_temperature;BME280_humidity;BME280_pressure;Samples;Min_cycle;Max_cycle;Signal;HPM_P1;HPM_P2
2022/11/21 00:02:23;;;;;;;5.80;2.55;;;;;;;7.36;83.18;100426.66;5069900;28;20016;-92
2022/11/21 00:04:49;;;;;;;10.38;2.30;;;;;;;7.28;83.48;100428.69;5084925;28;20043;-91
2022/11/21 00:07:14;;;;;;;8.02;2.83;;;;;;;7.33;83.53;100434.66;5071374;28;20492;-91
2022/11/21 00:09:39;;;;;;;9.70;2.75;;;;;;;7.34;83.70;100444.25;5089381;28;20040;-91
2022/11/21 00:12:05;;;;;;;8.20;2.92;;;;;;;7.36;83.74;100453.81;5084289;28;20032;-89
2022/11/21 00:14:30;;;;;;;6.60;3.40;;;;;;;7.36;83.80;100463.47;5078999;28;20579;-91
2022/11/21 00:16:55;;;;;;;11.43;3.72;;;;;;;7.45;83.59;100491.25;5080664;28;20059;-92
2022/11/21 00:19:21;;;;;;;8.32;2.90;;;;;;;7.31;83.61;100458.34;5068628;28;20077;-93
2022/11/21 00:21:46;;;;;;;7.72;2.92;;;;;;;7.31;84.05;100437.31;5060833;28;20818;-92
2022/11/21 00:24:11;;;;;;;8.70;3.03;;;;;;;7.41;83.94;100458.91;5079723;28;21282;-91
2022/11/21 00:26:37;;;;;;;7.50;3.15;;;;;;;7.38;83.92;100456.41;5060869;28;20027;-90
2022/11/21 00:29:02;;;;;;;9.50;3.20;;;;;;;7.48;83.42;100463.06;5063115;28;20475;-90
2022/11/21 00:31:28;;;;;;;10.98;3.63;;;;;;;7.44;83.68;100465.84;5080357;28;20093;-90
2022/11/21 00:33:53;;;;;;;7.03;2.95;;;;;;;7.48;83.50;100467.47;5079393;28;20035;-91
2022/11/21 00:36:18;;;;;;;10.75;3.67;;;;;;;7.40;83.84;100463.31;5079344;28;20016;-90
2022/11/21 00:38:43;;;;;;;7.97;3.60;;;;;;;7.36;83.82;100464.31;5058777;28;20025;-91
2022/11/21 00:41:09;;;;;;;10.48;3.92;;;;;;;7.27;84.24;100463.75;5066847;28;20008;-92
2022/11/21 00:43:34;;;;;;;12.35;4.22;;;;;;;7.18;83.97;100469.31;5081580;28;20589;-91
2022/11/21 00:46:01;;;;;;;11.27;3.55;;;;;;;7.26;82.91;100460.28;5060821;28;20303;-93
2022/11/21 00:48:27;;;;;;;12.40;3.25;;;;;;;7.15;83.46;100452.75;5065610;28;20106;-92
2022/11/21 00:50:52;;;;;;;7.78;3.17;;;;;;;7.13;84.13;100438.81;5086681;28;20126;-92
2022/11/21 00:53:17;;;;;;;9.73;3.58;;;;;;;7.15;84.35;100423.84;5066594;28;20513;-93
2022/11/21 00:55:43;;;;;;;14.35;3.78;;;;;;;7.18;84.65;100441.28;5067499;28;20089;-90
2022/11/21 00:58:08;;;;;;;10.02;3.38;;;;;;;7.19;83.66;100439.53;5063185;28;20027;-92
2022/11/21 01:00:33;;;;;;;8.48;3.17;;;;;;;7.27;83.81;100469.88;5067757;28;20068;-90
2022/11/21 01:03:00;;;;;;;8.45;3.42;;;;;;;7.16;83.95;100464.97;5082084;28;20028;-92
2022/11/21 01:05:26;;;;;;;7.80;3.28;;;;;;;7.16;83.84;100459.72;5070534;28;20052;-92
2022/11/21 01:07:51;;;;;;;11.43;3.95;;;;;;;7.11;83.67;100455.53;5064774;28;20514;-92
2022/11/21 01:10:16;;;;;;;8.10;2.95;;;;;;;7.13;83.25;100453.69;5069277;28;20024;-92
2022/11/21 01:12:43;;;;;;;7.60;3.50;;;;;;;7.09;83.38;100463.47;5084402;28;20043;-92
2022/11/21 01:15:09;;;;;;;10.68;3.13;;;;;;;7.02;83.68;100453.19;5085777;28;20479;-92
2022/11/21 01:17:34;;;;;;;7.63;3.22;;;;;;;7.10;83.30;100466.97;5087591;28;20031;-93
2022/11/21 01:19:59;;;;;;;11.20;5.25;;;;;;;6.96;83.50;100459.50;5086686;28;20031;-93
2022/11/21 01:22:25;;;;;;;19.02;10.02;;;;;;;6.94;83.10;100466.56;5071512;28;20404;-93
2022/11/21 01:24:50;;;;;;;20.27;11.88;;;;;;;6.64;83.98;100463.97;5090260;28;20483;-93
2022/11/21 01:27:15;;;;;;;23.45;12.57;;;;;;;6.53;83.98;100476.59;5066842;28;20042;-94
2022/11/21 01:29:40;;;;;;;24.70;14.02;;;;;;;6.38;83.80;100472.59;5091776;28;20114;-93
2022/11/21 01:32:06;;;;;;;25.95;14.25;;;;;;;6.26;84.06;100462.47;5065729;28;20029;-92
2022/11/21 01:34:32;;;;;;;26.02;14.70;;;;;;;6.30;83.85;100473.75;5089600;28;20031;-93
2022/11/21 01:36:57;;;;;;;25.55;14.48;;;;;;;6.25;83.96;100473.88;5068593;28;20529;-93
2022/11/21 01:39:22;;;;;;;34.45;16.00;;;;;;;6.24;84.34;100473.91;5089413;28;20024;-92
2022/11/21 01:41:48;;;;;;;27.98;16.02;;;;;;;6.34;83.52;100478.88;5065633;28;20030;-93
2022/11/21 01:44:25;;;;;;;30.77;16.45;;;;;;;6.38;83.37;100472.59;5093799;28;20046;-94
2022/11/21 01:46:51;;;;;;;28.80;16.05;;;;;;;6.39;83.34;100476.13;5069370;28;20123;-93
2022/11/21 01:49:24;;;;;;;26.15;15.25;;;;;;;6.33;83.13;100468.41;5071756;28;20040;-93
2022/11/21 01:52:00;;;;;;;28.35;16.13;;;;;;;6.26;83.53;100464.25;5075610;28;20483;-93
2022/11/21 01:54:51;;;;;;;32.58;16.85;;;;;;;6.37;82.36;100459.53;5070402;28;20020;-93
2022/11/21 01:57:36;;;;;;;28.42;15.95;;;;;;;6.08;83.54;100448.09;5075348;28;20036;-93
2022/11/21 02:00:20;;;;;;;28.83;15.60;;;;;;;6.15;83.14;100459.28;5068830;28;20035;-93
2022/11/21 02:02:50;;;;;;;28.20;14.27;;;;;;;6.01;83.04;100466.69;5072089;28;20030;-93
2022/11/21 02:05:20;;;;;;;29.35;16.02;;;;;;;5.84;83.71;100475.00;5070893;28;20051;-94
2022/11/21 02:07:48;;;;;;;29.48;16.88;;;;;;;5.79;84.22;100480.34;5072107;28;20378;-92
2022/11/21 02:10:14;;;;;;;29.85;15.85;;;;;;;5.73;84.17;100477.00;5073006;28;20145;-92
2022/11/21 02:12:50;;;;;;;29.95;17.73;;;;;;;5.85;84.21;100490.69;5067872;28;20245;-93
2022/11/21 02:15:22;;;;;;;28.63;16.20;;;;;;;5.89;84.31;100494.09;5072922;28;20128;-92
2022/11/21 02:17:47;;;;;;;31.93;16.20;;;;;;;5.91;84.00;100494.03;5074687;28;20511;-93
2022/11/21 02:20:15;;;;;;;34.00;16.60;;;;;;;5.90;83.63;100482.69;5091758;28;20282;-93
2022/11/21 02:22:53;;;;;;;31.90;16.92;;;;;;;5.93;83.57;100481.78;5069775;28;20519;-94
2022/11/21 02:25:22;;;;;;;32.13;17.05;;;;;;;5.82;83.97;100464.50;5073151;28;20470;-93
2022/11/21 02:27:52;;;;;;;30.67;17.10;;;;;;;5.85;83.79;100480.19;5098610;28;20632;-94
2022/11/21 02:30:17;;;;;;;28.77;16.80;;;;;;;5.86;83.91;100489.78;5094512;28;20028;-94
2022/11/21 02:32:45;;;;;;;34.63;17.45;;;;;;;5.85;83.70;100489.81;5079898;28;20036;-93
2022/11/21 02:35:16;;;;;;;34.47;16.88;;;;;;;5.92;83.60;100499.25;5077564;28;20292;-93
2022/11/21 02:37:44;;;;;;;30.55;16.58;;;;;;;5.91;82.76;100486.16;5080660;28;20107;-94
2022/11/21 02:40:41;;;;;;;30.55;16.65;;;;;;;5.95;83.07;100477.34;5079980;28;20068;-93
2022/11/21 02:43:13;;;;;;;28.65;15.45;;;;;;;5.86;83.13;100468.78;5078081;28;20051;-94
2022/11/21 02:45:41;;;;;;;27.83;16.17;;;;;;;5.82;83.04;100476.78;5092083;28;20028;-93
2022/11/21 02:48:07;;;;;;;31.95;16.98;;;;;;;5.83;83.24;100487.25;5073215;28;20032;-94
2022/11/21 02:50:35;;;;;;;29.25;15.30;;;;;;;5.86;83.17;100500.25;5070115;28;20067;-94
2022/11/21 02:53:01;;;;;;;26.67;15.30;;;;;;;5.84;82.88;100495.97;5068765;28;20032;-94
2022/11/21 02:55:27;;;;;;;26.70;14.70;;;;;;;5.83;83.00;100502.97;5074535;28;20024;-93
2022/11/21 02:57:53;;;;;;;30.45;16.00;;;;;;;5.84;82.85;100509.94;5085640;28;20035;-93
2022/11/21 03:00:19;;;;;;;25.73;14.32;;;;;;;5.75;82.76;100510.19;5075401;28;20077;-94
2022/11/21 03:02:45;;;;;;;25.63;14.57;;;;;;;5.62;82.96;100501.75;5085535;28;20036;-93
2022/11/21 03:05:13;;;;;;;27.70;15.90;;;;;;;5.63;83.51;100513.09;5089975;28;20077;-94
2022/11/21 03:07:38;;;;;;;31.27;15.45;;;;;;;5.59;83.68;100493.09;5068507;28;20046;-93
2022/11/21 03:10:04;;;;;;;29.77;15.75;;;;;;;5.65;83.48;100492.97;5073455;28;20050;-93
2022/11/21 03:12:29;;;;;;;32.58;16.90;;;;;;;5.71;82.90;100473.59;5093622;28;20417;-93
2022/11/21 03:14:55;;;;;;;29.15;16.42;;;;;;;5.66;83.33;100473.69;5076107;28;20038;-93
2022/11/21 03:17:20;;;;;;;35.20;16.35;;;;;;;6.02;82.26;100474.53;5072564;28;20024;-94
2022/11/21 03:19:45;;;;;;;33.08;16.75;;;;;;;5.66;82.68;100463.22;5064826;28;20582;-92
2022/11/21 03:22:12;;;;;;;27.77;15.57;;;;;;;5.60;83.16;100461.63;5077329;28;20012;-93
2022/11/21 03:24:37;;;;;;;33.30;15.73;;;;;;;5.53;83.20;100454.78;5076521;28;20106;-93
2022/11/21 03:27:02;;;;;;;32.28;16.63;;;;;;;5.53;83.12;100461.81;5077769;28;20058;-94
2022/11/21 03:29:28;;;;;;;34.70;17.05;;;;;;;5.63;83.21;100473.78;5097135;28;20049;-92
2022/11/21 03:31:53;;;;;;;32.45;16.60;;;;;;;5.65;83.37;100466.75;5080114;28;20043;-92
2022/11/21 03:34:18;;;;;;;36.88;16.05;;;;;;;5.67;83.29;100464.06;5079842;28;20055;-91
2022/11/21 03:36:44;;;;;;;63.20;16.70;;;;;;;5.51;83.00;100448.75;5073469;28;20050;-94
2022/11/21 03:39:09;;;;;;;32.60;14.20;;;;;;;5.60;83.04;100469.47;5072960;28;20020;-92
2022/11/21 03:41:35;;;;;;;29.05;14.82;;;;;;;5.35;83.38;100429.03;5073488;28;20039;-91
2022/11/21 03:44:06;;;;;;;54.78;17.23;;;;;;;5.30;83.47;100437.03;5065813;28;20125;-92
2022/11/21 03:46:34;;;;;;;59.85;16.52;;;;;;;5.42;83.25;100467.31;5092547;28;20043;-93
2022/11/21 03:48:59;;;;;;;54.25;16.95;;;;;;;5.13;83.63;100426.13;5070740;28;20024;-94
2022/11/21 03:51:25;;;;;;;27.90;15.20;;;;;;;5.34;84.02;100458.78;5089751;28;20035;-92
2022/11/21 03:53:51;;;;;;;29.45;15.77;;;;;;;5.36;83.96;100472.69;5076141;28;20095;-94
2022/11/21 03:56:16;;;;;;;42.25;16.15;;;;;;;5.36;83.72;100467.44;5071794;28;20024;-93
2022/11/21 03:58:42;;;;;;;33.15;17.13;;;;;;;5.39;84.24;100475.25;5084801;28;20085;-92
2022/11/21 04:01:08;;;;;;;117.03;20.40;;;;;;;5.29;83.37;100461.50;5068418;28;20119;-92
2022/11/21 04:03:34;;;;;;;91.40;18.35;;;;;;;5.24;83.33;100470.41;5072576;28;20026;-92
2022/11/21 04:06:00;;;;;;;46.05;16.88;;;;;;;5.06;83.60;100455.97;5071134;28;20024;-94
2022/11/21 04:08:25;;;;;;;42.17;16.00;;;;;;;5.10;84.21;100465.47;5079560;28;20398;-92
2022/11/21 04:10:52;;;;;;;60.20;16.98;;;;;;;5.11;84.43;100467.19;5075262;28;20024;-93
2022/11/21 04:13:17;;;;;;;103.22;20.10;;;;;;;4.88;84.64;100438.91;5092746;28;20032;-93
2022/11/21 04:15:43;;;;;;;37.17;16.27;;;;;;;4.91;85.19;100464.19;5087632;28;20031;-94
2022/11/21 04:18:09;;;;;;;48.63;17.05;;;;;;;5.00;85.16;100475.31;5064892;28;20036;-92
2022/11/21 04:20:35;;;;;;;67.03;15.50;;;;;;;5.02;84.69;100463.03;5070300;28;20104;-93
2022/11/21 04:23:00;;;;;;;138.50;20.90;;;;;;;4.86;85.04;100443.34;5068959;28;20027;-92
2022/11/21 04:25:25;;;;;;;70.95;17.63;;;;;;;4.98;85.80;100465.75;5090167;28;20032;-93
2022/11/21 04:27:54;;;;;;;55.17;17.58;;;;;;;4.91;85.80;100462.44;5086302;28;20475;-92
2022/11/21 04:30:19;;;;;;;70.93;18.00;;;;;;;5.00;85.86;100467.47;5060570;28;20028;-93
2022/11/21 04:32:46;;;;;;;76.45;17.40;;;;;;;4.91;85.64;100438.84;5072593;28;20040;-93
2022/11/21 04:35:11;;;;;;;117.43;18.52;;;;;;;5.08;85.78;100464.63;5069008;28;20103;-92
2022/11/21 04:37:38;;;;;;;77.00;18.77;;;;;;;5.12;85.68;100459.28;5071819;28;20111;-93
2022/11/21 04:40:03;;;;;;;75.50;18.48;;;;;;;5.15;85.59;100455.75;5090396;28;20024;-91
2022/11/21 04:42:29;;;;;;;57.65;15.95;;;;;;;5.20;85.33;100448.63;5069224;28;20058;-93
2022/11/21 04:44:54;;;;;;;36.42;16.05;;;;;;;5.26;84.90;100448.47;5069717;28;20032;-93
2022/11/21 04:47:19;;;;;;;43.63;17.27;;;;;;;5.26;84.89;100437.13;5074225;28;20096;-93
2022/11/21 04:49:44;;;;;;;38.28;14.40;;;;;;;5.29;84.79;100426.59;5068486;28;20094;-92
2022/11/21 04:52:10;;;;;;;53.95;16.70;;;;;;;5.36;84.45;100431.66;5072093;28;20056;-93
2022/11/21 04:54:36;;;;;;;33.33;15.27;;;;;;;5.38;84.70;100429.84;5071426;28;20078;-93
2022/11/21 04:57:01;;;;;;;49.72;17.60;;;;;;;5.37;84.79;100430.75;5064432;28;20057;-94
2022/11/21 04:59:26;;;;;;;74.22;17.83;;;;;;;5.41;84.87;100436.78;5068195;28;20039;-92
2022/11/21 05:01:51;;;;;;;71.90;17.27;;;;;;;5.26;84.63;100413.53;5067471;28;20469;-91
2022/11/21 05:04:17;;;;;;;30.55;14.95;;;;;;;5.31;84.31;100425.63;5068649;28;20028;-94
2022/11/21 05:06:42;;;;;;;89.63;16.48;;;;;;;5.29;84.49;100422.19;5063868;28;20040;-94
2022/11/21 05:09:07;;;;;;;80.22;17.60;;;;;;;5.28;84.65;100419.63;5070114;28;20079;-94
2022/11/21 05:14:16;;;;;;;34.90;15.50;;;;;;;5.34;84.54;100429.94;5070503;28;20063;-94
2022/11/21 05:16:42;;;;;;;43.22;15.05;;;;;;;5.38;84.60;100419.34;5070915;28;20468;-93
2022/11/21 05:19:08;;;;;;;107.28;17.48;;;;;;;5.30;84.57;100409.94;5068558;28;20025;-93
2022/11/21 05:21:33;;;;;;;62.38;15.23;;;;;;;5.20;84.44;100405.84;5062346;28;20475;-94
2022/11/21 05:23:58;;;;;;;66.20;17.20;;;;;;;5.19;84.54;100418.09;5064998;28;20032;-93
2022/11/21 05:26:24;;;;;;;81.25;16.52;;;;;;;5.11;84.83;100407.78;5065851;28;20780;-93
2022/11/21 05:28:49;;;;;;;79.78;15.80;;;;;;;5.12;84.75;100406.03;5064852;28;20021;-93
2022/11/21 05:31:14;;;;;;;34.42;13.98;;;;;;;5.11;85.09;100399.06;5064578;28;20028;-91
2022/11/21 05:33:39;;;;;;;83.40;16.08;;;;;;;5.19;84.72;100412.00;5067013;28;20043;-92
2022/11/21 05:36:05;;;;;;;57.83;15.48;;;;;;;5.12;85.06;100399.03;5063478;28;20035;-93
2022/11/21 05:38:30;;;;;;;74.85;15.30;;;;;;;5.11;84.81;100401.69;5063599;28;20027;-93
2022/11/21 05:40:55;;;;;;;50.35;15.55;;;;;;;5.29;84.60;100400.38;5065456;28;20526;-93
2022/11/21 05:46:05;;;;;;;58.38;15.88;;;;;;;5.19;85.07;100398.91;5071086;28;20089;-91
2022/11/21 05:48:30;;;;;;;47.72;15.68;;;;;;;5.31;84.67;100411.66;5067819;28;20479;-91
2022/11/21 05:50:55;;;;;;;43.88;15.13;;;;;;;5.23;84.56;100388.28;5064020;28;20045;-91
2022/11/21 05:53:20;;;;;;;42.83;15.40;;;;;;;5.29;84.68;100400.38;5072705;28;20040;-93
2022/11/21 05:55:46;;;;;;;83.07;15.05;;;;;;;5.23;84.84;100395.31;5071505;28;20111;-93
2022/11/21 05:58:12;;;;;;;37.42;15.02;;;;;;;5.22;84.89;100397.06;5074693;28;20038;-94
2022/11/21 06:00:37;;;;;;;43.47;14.88;;;;;;;5.24;84.99;100386.53;5068380;28;20162;-94
2022/11/21 06:05:48;;;;;;;48.22;13.80;;;;;;;5.14;85.25;100383.28;5073212;28;20146;-93
2022/11/21 06:08:13;;;;;;;60.72;15.90;;;;;;;5.14;85.27;100374.56;5075203;28;20048;-93
2022/11/21 06:10:38;;;;;;;93.55;17.95;;;;;;;5.14;85.42;100383.28;5078383;28;20041;-94
2022/11/21 06:13:20;;;;;;;32.25;14.50;;;;;;;5.10;85.82;100372.00;5072431;28;20032;-92
2022/11/21 06:16:09;;;;;;;67.00;16.35;;;;;;;5.14;85.73;100378.03;5067016;28;20407;-92
2022/11/21 06:18:37;;;;;;;54.42;15.48;;;;;;;5.21;85.70;100387.47;5057756;28;20068;-92
2022/11/21 06:21:03;;;;;;;75.15;18.05;;;;;;;5.24;85.97;100389.16;5062793;28;20020;-92
2022/11/21 06:23:29;;;;;;;37.60;15.18;;;;;;;5.23;85.57;100382.19;5070516;28;20555;-93
2022/11/21 06:25:59;;;;;;;65.35;16.92;;;;;;;5.27;86.02;100387.31;5072136;28;20071;-93
2022/11/21 06:28:25;;;;;;;35.25;14.68;;;;;;;5.30;85.93;100384.59;5072443;28;20028;-93
2022/11/21 06:30:51;;;;;;;31.33;14.88;;;;;;;5.34;85.52;100381.00;5069131;28;20024;-93
2022/11/21 06:33:17;;;;;;;34.78;13.98;;;;;;;5.33;85.51;100367.94;5064791;28;20323;-94
2022/11/21 06:35:43;;;;;;;37.70;14.65;;;;;;;5.38;85.29;100366.06;5068930;28;20062;-94
2022/11/21 06:38:11;;;;;;;28.50;14.57;;;;;;;5.43;85.43;100373.81;5065964;28;20071;-93
2022/11/21 06:40:36;;;;;;;27.55;13.70;;;;;;;5.42;85.59;100345.88;5066030;28;20051;-92
2022/11/21 06:43:02;;;;;;;29.27;14.57;;;;;;;5.64;84.73;100349.59;5061786;28;20051;-93
2022/11/21 06:45:27;;;;;;;37.17;15.35;;;;;;;5.49;85.26;100352.66;5058971;28;20043;-93
2022/11/21 06:47:52;;;;;;;27.92;15.18;;;;;;;5.45;85.42;100353.63;5061566;28;20032;-94
2022/11/21 06:50:18;;;;;;;38.63;15.73;;;;;;;5.42;85.54;100345.88;5063299;28;20404;-93
2022/11/21 06:52:43;;;;;;;27.42;15.70;;;;;;;5.37;85.88;100340.75;5063169;28;20082;-93
2022/11/21 06:55:10;;;;;;;26.80;14.98;;;;;;;5.35;85.85;100338.16;5050860;28;20491;-92
2022/11/21 06:57:36;;;;;;;29.27;14.77;;;;;;;5.42;85.31;100351.13;5061902;28;20036;-92
2022/11/21 07:00:03;;;;;;;25.80;14.48;;;;;;;5.44;85.55;100347.53;5060681;28;20051;-94
2022/11/21 07:02:28;;;;;;;22.20;13.05;;;;;;;5.40;85.79;100343.28;5067676;28;20035;-94
2022/11/21 07:04:53;;;;;;;27.00;13.50;;;;;;;5.39;86.01;100333.69;5070701;28;20021;-93
2022/11/21 07:07:19;;;;;;;27.00;14.80;;;;;;;5.44;86.37;100339.69;5068794;28;20050;-93
2022/11/21 07:09:46;;;;;;;26.42;14.63;;;;;;;5.51;86.50;100343.88;5061691;28;20036;-93
2022/11/21 07:14:55;;;;;;;27.88;12.77;;;;;;;5.59;86.30;100344.50;5069646;28;20156;-95
2022/11/21 07:17:20;;;;;;;27.13;13.65;;;;;;;5.62;86.03;100339.16;5060491;28;20634;-93
2022/11/21 07:19:46;;;;;;;27.23;14.82;;;;;;;5.58;86.47;100337.53;5064056;28;20056;-92
2022/11/21 07:22:11;;;;;;;28.90;14.35;;;;;;;5.56;86.34;100334.09;5066018;28;20039;-92
2022/11/21 07:24:36;;;;;;;23.83;13.35;;;;;;;5.55;86.30;100321.06;5069025;28;20107;-93
2022/11/21 07:27:02;;;;;;;27.83;13.85;;;;;;;5.58;86.50;100321.81;5066654;28;20733;-92
2022/11/21 07:29:27;;;;;;;26.30;13.68;;;;;;;5.58;86.64;100313.94;5067042;28;20033;-94
2022/11/21 07:31:53;;;;;;;29.08;13.52;;;;;;;5.62;86.81;100330.44;5066338;28;20034;-93
2022/11/21 07:34:18;;;;;;;25.42;14.45;;;;;;;5.75;86.72;100338.84;5061365;28;20475;-93
2022/11/21 07:36:44;;;;;;;29.73;14.57;;;;;;;5.78;86.21;100341.34;5065357;28;20035;-93
2022/11/21 07:39:09;;;;;;;26.13;13.95;;;;;;;5.85;86.54;100324.56;5071314;28;20036;-93
2022/11/21 07:41:34;;;;;;;22.65;12.30;;;;;;;5.95;85.92;100327.78;5069972;28;20038;-92
2022/11/21 07:43:59;;;;;;;23.58;14.68;;;;;;;6.03;85.86;100328.44;5067873;28;20111;-93
2022/11/21 07:46:25;;;;;;;23.17;13.60;;;;;;;5.92;86.33;100323.47;5068205;28;20024;-93
2022/11/21 07:48:50;;;;;;;23.10;14.02;;;;;;;6.11;86.32;100335.19;5066345;28;20123;-93
2022/11/21 07:51:15;;;;;;;24.65;14.50;;;;;;;6.04;86.65;100323.13;5067136;28;20040;-93
2022/11/21 07:53:41;;;;;;;22.30;12.38;;;;;;;6.18;86.48;100327.09;5083754;28;20035;-93
2022/11/21 07:56:08;;;;;;;21.42;11.95;;;;;;;6.09;87.18;100320.38;5064400;28;20378;-92
2022/11/21 07:58:34;;;;;;;22.83;12.00;;;;;;;6.19;87.58;100331.44;5065458;28;20121;-93
2022/11/21 08:01:04;;;;;;;24.30;10.70;;;;;;;6.23;87.50;100333.06;5066448;28;20540;-94
2022/11/21 08:03:29;;;;;;;19.88;12.07;;;;;;;6.22;87.38;100318.25;5082808;28;20414;-92
2022/11/21 08:05:55;;;;;;;19.30;11.57;;;;;;;6.30;87.20;100316.25;5068530;28;20541;-93
2022/11/21 08:08:21;;;;;;;22.73;11.52;;;;;;;6.38;87.12;100312.44;5073268;28;20024;-94
2022/11/21 08:10:46;;;;;;;19.90;10.40;;;;;;;6.52;86.25;100317.25;5095054;28;20026;-93
2022/11/21 08:13:12;;;;;;;19.60;10.35;;;;;;;6.45;86.43;100307.88;5074026;28;20012;-93
2022/11/21 08:15:39;;;;;;;24.98;10.65;;;;;;;6.50;86.48;100324.34;5058114;28;20118;-92
2022/11/21 08:18:08;;;;;;;22.17;10.48;;;;;;;6.55;86.78;100313.69;5073069;28;20069;-93
2022/11/21 08:20:33;;;;;;;19.15;10.00;;;;;;;6.52;86.10;100305.91;5091318;28;20020;-91
2022/11/21 08:22:58;;;;;;;18.33;9.90;;;;;;;6.76;85.61;100310.38;5069979;28;20486;-92
2022/11/21 08:25:24;;;;;;;19.10;9.50;;;;;;;6.75;85.62;100298.13;5087543;28;20036;-92
2022/11/21 08:27:49;;;;;;;19.67;9.75;;;;;;;6.61;85.49;100309.09;5072607;28;20395;-93
2022/11/21 08:30:14;;;;;;;17.15;9.07;;;;;;;6.80;85.30;100290.97;5071299;28;20077;-92
2022/11/21 08:32:39;;;;;;;17.33;8.30;;;;;;;6.93;84.80;100288.78;5091198;28;20020;-92
2022/11/21 08:35:05;;;;;;;18.77;8.80;;;;;;;6.94;84.44;100285.22;5082256;28;20564;-91
2022/11/21 08:37:30;;;;;;;14.80;8.45;;;;;;;7.08;84.86;100284.75;5084846;28;20031;-91
2022/11/21 08:39:59;;;;;;;15.55;7.47;;;;;;;7.26;83.69;100278.88;5089082;28;20020;-91
2022/11/21 08:42:25;;;;;;;14.48;8.02;;;;;;;7.02;84.37;100280.59;5090771;28;20042;-91
2022/11/21 08:44:50;;;;;;;15.88;7.38;;;;;;;7.04;83.78;100256.88;5085589;28;20478;-91
2022/11/21 08:47:15;;;;;;;10.40;6.13;;;;;;;7.06;83.72;100260.31;5070315;28;20479;-91
2022/11/21 08:49:41;;;;;;;9.55;6.70;;;;;;;7.09;83.68;100263.72;5070526;28;20048;-91
2022/11/21 08:52:06;;;;;;;11.63;7.10;;;;;;;7.19;83.61;100266.88;5067572;28;20039;-90
2022/11/21 08:54:32;;;;;;;13.30;6.32;;;;;;;7.19;83.72;100263.38;5087137;28;20035;-90
2022/11/21 08:56:57;;;;;;;15.85;6.20;;;;;;;7.28;83.67;100268.31;5089170;28;20028;-91
2022/11/21 08:59:22;;;;;;;10.48;6.00;;;;;;;7.18;83.66;100253.75;5069783;28;20495;-90
2022/11/21 09:01:47;;;;;;;10.18;5.97;;;;;;;7.08;84.13;100256.72;5087856;28;20020;-90
2022/11/21 09:04:14;;;;;;;12.95;6.35;;;;;;;7.14;84.30;100259.13;5071395;28;20023;-90
2022/11/21 09:06:39;;;;;;;18.10;6.20;;;;;;;7.55;83.47;100255.91;5068522;28;20028;-90
2022/11/21 09:09:05;;;;;;;12.45;5.70;;;;;;;8.38;81.73;100262.34;5069933;28;20030;-90
2022/11/21 09:11:30;;;;;;;11.82;5.50;;;;;;;10.05;75.53;100247.09;5089229;28;20395;-89
2022/11/21 09:19:25;;;;;;;9.48;3.38;;;;;;;13.69;61.21;100245.69;5089683;28;20059;-89
2022/11/21 09:21:52;;;;;;;8.70;3.38;;;;;;;14.91;59.82;100241.31;5070868;28;20067;-89
2022/11/21 09:24:17;;;;;;;5.82;3.30;;;;;;;15.55;54.57;100237.72;5087177;28;20472;-88
2022/11/21 09:26:43;;;;;;;8.57;3.33;;;;;;;15.29;56.08;100222.72;5083375;28;20107;-89
2022/11/21 09:29:13;;;;;;;8.88;3.53;;;;;;;16.17;53.72;100231.53;5065494;28;20023;-88
2022/11/21 09:31:40;;;;;;;8.70;3.20;;;;;;;16.49;53.08;100234.50;5071173;28;20110;-91
2022/11/21 09:34:05;;;;;;;6.40;2.55;;;;;;;17.28;51.27;100229.44;5083826;28;20032;-89
2022/11/21 09:36:31;;;;;;;6.57;3.05;;;;;;;18.07;50.68;100227.63;5085803;28;20386;-88
2022/11/21 09:38:56;;;;;;;7.65;2.70;;;;;;;18.61;45.18;100221.38;5088878;28;20157;-89
2022/11/21 09:41:52;;;;;;;6.20;2.90;;;;;;;18.01;49.33;100220.09;5088757;28;20483;-89
2022/11/21 09:44:35;;;;;;;5.93;2.60;;;;;;;18.48;50.27;100218.88;5086125;28;20036;-87
2022/11/21 09:47:19;;;;;;;7.18;2.92;;;;;;;18.91;49.93;100214.44;5087542;28;20016;-88
2022/11/21 09:49:57;;;;;;;5.15;2.50;;;;;;;19.10;44.97;100206.53;5085901;28;20044;-89
2022/11/21 09:52:30;;;;;;;6.57;2.42;;;;;;;18.89;45.21;100201.19;5085553;28;20028;-89
2022/11/21 09:55:01;;;;;;;6.55;3.63;;;;;;;19.56;44.11;100206.06;5082734;28;20081;-88
2022/11/21 09:57:26;;;;;;;6.15;2.50;;;;;;;19.26;45.09;100206.91;5084192;28;20040;-89
2022/11/21 09:59:52;;;;;;;4.35;2.90;;;;;;;19.01;42.49;100194.78;5089111;28;20475;-89
2022/11/21 10:02:20;;;;;;;6.40;2.80;;;;;;;18.58;45.81;100198.38;5086317;28;20140;-89
2022/11/21 10:04:46;;;;;;;6.90;2.58;;;;;;;19.02;43.84;100198.28;5087001;28;20054;-89
2022/11/21 10:07:20;;;;;;;7.07;2.47;;;;;;;19.73;45.27;100188.53;5084005;28;20024;-89
2022/11/21 10:10:13;;;;;;;6.22;2.20;;;;;;;19.96;45.14;100186.47;5085598;28;20503;-89
2022/11/21 10:12:55;;;;;;;6.43;2.72;;;;;;;19.80;45.82;100188.81;5087508;28;20549;-89
2022/11/21 10:15:39;;;;;;;9.25;2.63;;;;;;;18.28;46.83;100183.06;5061407;28;20081;-90
2022/11/21 10:18:29;;;;;;;7.40;2.92;;;;;;;18.17;48.31;100180.41;5069940;28;20028;-90
2022/11/21 10:21:10;;;;;;;5.03;2.33;;;;;;;17.79;47.39;100162.16;5052378;28;20035;-90
2022/11/21 10:23:53;;;;;;;4.75;2.33;;;;;;;18.10;44.76;100168.53;5068759;28;20231;-90
2022/11/21 10:26:29;;;;;;;;;;;;;;;17.61;49.33;100167.13;5086929;28;20033;-90
2022/11/21 10:29:23;;;;;;;5.18;2.33;;;;;;;17.80;45.45;100143.28;5089970;28;19923;-89
2022/11/21 10:31:49;;;;;;;4.18;2.63;;;;;;;17.68;45.78;100152.31;5071603;28;20035;-90
2022/11/21 10:34:21;;;;;;;7.28;2.67;;;;;;;17.00;46.93;100148.78;5090105;28;20050;-91
2022/11/21 10:36:55;;;;;;;5.60;2.40;;;;;;;16.24;50.96;100141.28;5068193;28;20563;-90
2022/11/21 10:39:39;;;;;;;10.88;2.63;;;;;;;15.48;49.87;100150.34;5063797;28;20273;-90
2022/11/21 10:42:33;;;;;;;6.63;2.47;;;;;;;14.65;55.66;100147.31;5071743;28;20574;-91
2022/11/21 10:45:16;;;;;;;4.13;2.20;;;;;;;14.10;55.88;100143.00;5090092;28;20032;-91
2022/11/21 10:47:43;;;;;;;9.52;2.83;;;;;;;13.93;56.46;100136.97;5089789;28;20024;-91
2022/11/21 10:50:08;;;;;;;7.68;2.42;;;;;;;14.25;55.30;100131.34;5091263;28;20040;-91
2022/11/21 10:53:02;;;;;;;7.60;2.40;;;;;;;14.40;54.26;100132.97;5085252;28;20034;-91
2022/11/21 10:55:27;;;;;;;6.75;2.85;;;;;;;14.33;56.96;100125.53;5089117;28;20297;-91
2022/11/21 10:57:53;;;;;;;10.35;2.80;;;;;;;14.11;55.11;100121.63;5091124;28;20601;-91
2022/11/21 11:00:26;;;;;;;4.88;2.53;;;;;;;14.13;53.88;100113.53;5089429;28;20027;-91
2022/11/21 11:02:54;;;;;;;;;;;;;;;15.21;55.75;100127.41;5090982;28;20483;-93
2022/11/21 11:05:21;;;;;;;4.65;2.72;;;;;;;16.48;50.64;100111.88;5069637;28;19927;-93
2022/11/21 11:08:08;;;;;;;6.03;3.13;;;;;;;17.79;49.16;100108.69;5087968;28;20032;-92
2022/11/21 11:11:03;;;;;;;7.22;3.30;;;;;;;18.20;46.74;100086.53;5084174;28;20434;-92
2022/11/21 11:13:34;;;;;;;7.63;3.15;;;;;;;18.76;43.57;100090.72;5067196;28;20064;-90
2022/11/21 11:16:08;;;;;;;8.73;3.55;;;;;;;19.40;43.55;100101.19;5071617;28;20134;-91
2022/11/21 11:18:38;;;;;;;7.35;3.08;;;;;;;19.94;41.89;100078.44;5091329;28;20024;-90
2022/11/21 11:21:19;;;;;;;7.25;3.22;;;;;;;20.75;41.02;100068.22;5090075;28;20089;-88
2022/11/21 11:23:46;;;;;;;6.80;2.92;;;;;;;21.54;39.58;100077.63;5071769;28;20028;-89
2022/11/21 11:26:21;;;;;;;6.05;2.97;;;;;;;21.02;40.52;100075.44;5066440;28;20475;-89
2022/11/21 11:28:47;;;;;;;5.75;2.72;;;;;;;20.28;38.46;100065.41;5091103;28;20030;-89
2022/11/21 11:31:12;;;;;;;7.28;3.10;;;;;;;20.04;39.58;100062.31;5073029;28;20119;-90
2022/11/21 11:33:50;;;;;;;9.15;2.80;;;;;;;20.84;39.59;100061.09;5073073;28;20114;-90
2022/11/21 11:36:30;;;;;;;9.45;3.03;;;;;;;21.67;36.99;100061.13;5088333;28;20024;-91
2022/11/21 11:39:06;;;;;;;6.95;2.30;;;;;;;21.95;36.61;100051.16;5059974;28;20032;-90
2022/11/21 11:48:08;;;;;;;5.10;2.35;;;;;;;20.86;38.88;100032.25;5089764;28;20035;-91
2022/11/21 11:50:40;;;;;;;4.93;2.10;;;;;;;20.67;38.50;100018.88;5081575;28;20033;-90